sensor_id;sensor_type;location;lat;lon;timestamp;P1;durP1;ratioP1;P2;durP2;ratioP2
4786;SDS011;62338;48.832;9.422;2023-04-28T00:01:11;4.70;;;2.70;;
4786;SDS011;62338;48.832;9.422;2023-04-28T00:03:12;4.93;;;2.93;;
4786;SDS011;62338;48.832;9.422;2023-04-28T00:05:14;5.43;;;2.80;;
4786;SDS011;62338;48.832;9.422;2023-04-28T00:07:16;9.37;;;3.07;;
4786;SDS011;62338;48.832;9.422;2023-04-28T00:09:18;7.37;;;2.97;;
4786;SDS011;62338;48.832;9.422;2023-04-28T00:11:20;4.60;;;2.87;;
4786;SDS011;62338;48.832;9.422;2023-04-28T00:13:22;4.37;;;2.90;;
4786;SDS011;62338;48.832;9.422;2023-04-28T00:15:24;7.37;;;2.33;;
4786;SDS011;62338;48.832;9.422;2023-04-28T00:17:26;5.27;;;2.70;;
4786;SDS011;62338;48.832;9.422;2023-04-28T00:19:27;5.63;;;3.13;;
4786;SDS011;62338;48.832;9.422;2023-04-28T00:21:29;6.30;;;2.10;;
4786;SDS011;62338;48.832;9.422;2023-04-28T00:23:32;5.23;;;2.27;;
4786;SDS011;62338;48.832;9.422;2023-04-28T00:25:33;6.53;;;2.90;;
4786;SDS011;62338;48.832;9.422;2023-04-28T00:27:35;7.10;;;2.87;;
4786;SDS011;62338;48.832;9.422;2023-04-28T00:29:37;6.57;;;2.73;;
4786;SDS011;62338;48.832;9.422;2023-04-28T00:31:39;6.30;;;3.27;;
4786;SDS011;62338;48.832;9.422;2023-04-28T00:33:41;5.13;;;2.50;;
4786;SDS011;62338;48.832;9.422;2023-04-28T00:35:43;5.93;;;2.23;;
4786;SDS011;62338;48.832;9.422;2023-04-28T00:37:45;7.40;;;2.67;;
4786;SDS011;62338;48.832;9.422;2023-04-28T00:39:47;6.47;;;2.90;;
4786;SDS011;62338;48.832;9.422;2023-04-28T00:41:49;7.23;;;2.80;;
4786;SDS011;62338;48.832;9.422;2023-04-28T00:43:50;7.33;;;2.77;;
4786;SDS011;62338;48.832;9.422;2023-04-28T00:45:52;5.23;;;3.03;;
4786;SDS011;62338;48.832;9.422;2023-04-28T00:47:54;10.33;;;3.30;;
4786;SDS011;62338;48.832;9.422;2023-04-28T00:49:57;5.17;;;2.60;;
4786;SDS011;62338;48.832;9.422;2023-04-28T00:51:59;7.27;;;3.33;;
4786;SDS011;62338;48.832;9.422;2023-04-28T00:54:05;5.10;;;2.60;;
4786;SDS011;62338;48.832;9.422;2023-04-28T00:56:07;4.10;;;2.40;;
4786;SDS011;62338;48.832;9.422;2023-04-28T00:58:09;7.10;;;2.87;;
4786;SDS011;62338;48.832;9.422;2023-04-28T01:00:10;6.70;;;2.60;;
4786;SDS011;62338;48.832;9.422;2023-04-28T01:02:13;4.40;;;2.33;;
4786;SDS011;62338;48.832;9.422;2023-04-28T01:04:19;5.00;;;2.73;;
4786;SDS011;62338;48.832;9.422;2023-04-28T01:06:21;4.03;;;2.50;;
4786;SDS011;62338;48.832;9.422;2023-04-28T01:08:26;4.63;;;2.53;;
4786;SDS011;62338;48.832;9.422;2023-04-28T01:10:29;4.30;;;2.70;;
4786;SDS011;62338;48.832;9.422;2023-04-28T01:12:31;3.87;;;2.40;;
4786;SDS011;62338;48.832;9.422;2023-04-28T01:14:33;6.33;;;2.30;;
4786;SDS011;62338;48.832;9.422;2023-04-28T01:16:35;6.40;;;2.40;;
4786;SDS011;62338;48.832;9.422;2023-04-28T01:18:40;13.33;;;3.13;;
4786;SDS011;62338;48.832;9.422;2023-04-28T01:20:46;6.57;;;2.47;;
4786;SDS011;62338;48.832;9.422;2023-04-28T01:22:48;4.73;;;2.27;;
4786;SDS011;62338;48.832;9.422;2023-04-28T01:24:49;5.63;;;2.50;;
4786;SDS011;62338;48.832;9.422;2023-04-28T01:26:51;5.10;;;2.83;;
4786;SDS011;62338;48.832;9.422;2023-04-28T01:28:53;4.43;;;2.40;;
4786;SDS011;62338;48.832;9.422;2023-04-28T01:30:54;5.33;;;2.63;;
4786;SDS011;62338;48.832;9.422;2023-04-28T01:32:56;6.63;;;2.73;;
4786;SDS011;62338;48.832;9.422;2023-04-28T01:34:58;5.00;;;2.60;;
4786;SDS011;62338;48.832;9.422;2023-04-28T01:37:00;4.30;;;2.73;;
4786;SDS011;62338;48.832;9.422;2023-04-28T01:39:02;5.13;;;2.70;;
4786;SDS011;62338;48.832;9.422;2023-04-28T01:41:04;9.40;;;3.33;;
4786;SDS011;62338;48.832;9.422;2023-04-28T01:43:06;4.00;;;2.40;;
4786;SDS011;62338;48.832;9.422;2023-04-28T01:45:08;4.23;;;2.20;;
4786;SDS011;62338;48.832;9.422;2023-04-28T01:47:10;4.20;;;2.90;;
4786;SDS011;62338;48.832;9.422;2023-04-28T01:49:12;4.97;;;2.43;;
4786;SDS011;62338;48.832;9.422;2023-04-28T01:51:13;4.60;;;2.57;;
4786;SDS011;62338;48.832;9.422;2023-04-28T01:53:15;7.23;;;2.90;;
4786;SDS011;62338;48.832;9.422;2023-04-28T01:55:20;7.13;;;2.57;;
4786;SDS011;62338;48.832;9.422;2023-04-28T01:57:22;6.43;;;2.40;;
4786;SDS011;62338;48.832;9.422;2023-04-28T01:59:24;5.13;;;2.77;;
4786;SDS011;62338;48.832;9.422;2023-04-28T02:01:26;6.70;;;2.33;;
4786;SDS011;62338;48.832;9.422;2023-04-28T02:03:27;5.37;;;2.50;;
4786;SDS011;62338;48.832;9.422;2023-04-28T02:05:29;5.80;;;2.30;;
4786;SDS011;62338;48.832;9.422;2023-04-28T02:07:31;5.60;;;2.83;;
4786;SDS011;62338;48.832;9.422;2023-04-28T02:09:33;3.80;;;2.03;;
4786;SDS011;62338;48.832;9.422;2023-04-28T02:11:35;5.23;;;2.20;;
4786;SDS011;62338;48.832;9.422;2023-04-28T02:13:37;6.57;;;3.00;;
4786;SDS011;62338;48.832;9.422;2023-04-28T02:15:41;4.70;;;2.53;;
4786;SDS011;62338;48.832;9.422;2023-04-28T02:17:43;4.03;;;2.50;;
4786;SDS011;62338;48.832;9.422;2023-04-28T02:19:45;4.30;;;2.40;;
4786;SDS011;62338;48.832;9.422;2023-04-28T02:21:47;4.17;;;2.20;;
4786;SDS011;62338;48.832;9.422;2023-04-28T02:23:49;4.70;;;2.63;;
4786;SDS011;62338;48.832;9.422;2023-04-28T02:25:59;6.30;;;2.33;;
4786;SDS011;62338;48.832;9.422;2023-04-28T02:28:01;4.67;;;2.67;;
4786;SDS011;62338;48.832;9.422;2023-04-28T02:30:03;4.33;;;2.30;;
4786;SDS011;62338;48.832;9.422;2023-04-28T02:32:06;6.07;;;2.30;;
4786;SDS011;62338;48.832;9.422;2023-04-28T02:34:08;3.93;;;2.10;;
4786;SDS011;62338;48.832;9.422;2023-04-28T02:36:10;5.67;;;2.60;;
4786;SDS011;62338;48.832;9.422;2023-04-28T02:38:11;5.40;;;2.10;;
4786;SDS011;62338;48.832;9.422;2023-04-28T02:40:13;4.93;;;2.33;;
4786;SDS011;62338;48.832;9.422;2023-04-28T02:42:15;6.90;;;2.50;;
4786;SDS011;62338;48.832;9.422;2023-04-28T02:44:17;4.20;;;2.33;;
4786;SDS011;62338;48.832;9.422;2023-04-28T02:46:18;6.00;;;2.53;;
4786;SDS011;62338;48.832;9.422;2023-04-28T02:48:21;14.63;;;2.20;;
4786;SDS011;62338;48.832;9.422;2023-04-28T02:50:23;4.00;;;2.43;;
4786;SDS011;62338;48.832;9.422;2023-04-28T02:52:24;5.40;;;2.63;;
4786;SDS011;62338;48.832;9.422;2023-04-28T02:54:27;4.27;;;2.30;;
4786;SDS011;62338;48.832;9.422;2023-04-28T02:56:28;4.30;;;2.07;;
4786;SDS011;62338;48.832;9.422;2023-04-28T02:58:30;4.27;;;2.60;;
4786;SDS011;62338;48.832;9.422;2023-04-28T03:00:32;3.33;;;2.07;;
4786;SDS011;62338;48.832;9.422;2023-04-28T03:02:34;4.13;;;2.47;;
4786;SDS011;62338;48.832;9.422;2023-04-28T03:04:36;4.50;;;2.63;;
4786;SDS011;62338;48.832;9.422;2023-04-28T03:06:38;4.90;;;2.53;;
4786;SDS011;62338;48.832;9.422;2023-04-28T03:08:40;4.07;;;2.83;;
4786;SDS011;62338;48.832;9.422;2023-04-28T03:10:42;5.77;;;2.57;;
4786;SDS011;62338;48.832;9.422;2023-04-28T03:12:44;6.70;;;2.93;;
4786;SDS011;62338;48.832;9.422;2023-04-28T03:14:46;7.93;;;2.77;;
4786;SDS011;62338;48.832;9.422;2023-04-28T03:16:47;4.67;;;2.50;;
4786;SDS011;62338;48.832;9.422;2023-04-28T03:18:49;5.73;;;2.80;;
4786;SDS011;62338;48.832;9.422;2023-04-28T03:20:51;4.67;;;2.57;;
4786;SDS011;62338;48.832;9.422;2023-04-28T03:22:53;5.40;;;2.70;;
4786;SDS011;62338;48.832;9.422;2023-04-28T03:24:54;5.90;;;2.77;;
4786;SDS011;62338;48.832;9.422;2023-04-28T03:26:56;7.40;;;3.40;;
4786;SDS011;62338;48.832;9.422;2023-04-28T03:28:58;3.60;;;2.70;;
4786;SDS011;62338;48.832;9.422;2023-04-28T03:31:00;5.40;;;2.60;;
4786;SDS011;62338;48.832;9.422;2023-04-28T03:33:02;5.90;;;2.60;;
4786;SDS011;62338;48.832;9.422;2023-04-28T03:35:04;4.20;;;2.73;;
4786;SDS011;62338;48.832;9.422;2023-04-28T03:37:06;3.80;;;2.73;;
4786;SDS011;62338;48.832;9.422;2023-04-28T03:39:08;4.87;;;3.00;;
4786;SDS011;62338;48.832;9.422;2023-04-28T03:41:10;5.20;;;2.73;;
4786;SDS011;62338;48.832;9.422;2023-04-28T03:43:11;6.70;;;3.20;;
4786;SDS011;62338;48.832;9.422;2023-04-28T03:45:13;4.17;;;2.83;;
4786;SDS011;62338;48.832;9.422;2023-04-28T03:47:15;4.60;;;3.03;;
4786;SDS011;62338;48.832;9.422;2023-04-28T03:49:17;4.17;;;3.10;;
4786;SDS011;62338;48.832;9.422;2023-04-28T03:51:19;5.97;;;3.30;;
4786;SDS011;62338;48.832;9.422;2023-04-28T03:53:21;4.07;;;2.70;;
4786;SDS011;62338;48.832;9.422;2023-04-28T03:55:23;5.13;;;3.20;;
4786;SDS011;62338;48.832;9.422;2023-04-28T03:57:26;5.90;;;3.17;;
4786;SDS011;62338;48.832;9.422;2023-04-28T03:59:28;7.33;;;3.17;;
4786;SDS011;62338;48.832;9.422;2023-04-28T04:01:29;4.90;;;2.77;;
4786;SDS011;62338;48.832;9.422;2023-04-28T04:03:31;5.53;;;2.60;;
4786;SDS011;62338;48.832;9.422;2023-04-28T04:05:33;6.53;;;3.27;;
4786;SDS011;62338;48.832;9.422;2023-04-28T04:07:35;6.33;;;3.10;;
4786;SDS011;62338;48.832;9.422;2023-04-28T04:09:36;4.40;;;2.50;;
4786;SDS011;62338;48.832;9.422;2023-04-28T04:11:38;3.60;;;2.33;;
4786;SDS011;62338;48.832;9.422;2023-04-28T04:13:40;7.77;;;2.83;;
4786;SDS011;62338;48.832;9.422;2023-04-28T04:15:42;4.30;;;3.03;;
4786;SDS011;62338;48.832;9.422;2023-04-28T04:17:44;3.37;;;2.10;;
4786;SDS011;62338;48.832;9.422;2023-04-28T04:19:46;5.00;;;2.70;;
4786;SDS011;62338;48.832;9.422;2023-04-28T04:21:48;4.00;;;2.37;;
4786;SDS011;62338;48.832;9.422;2023-04-28T04:23:49;4.33;;;2.77;;
4786;SDS011;62338;48.832;9.422;2023-04-28T04:25:51;3.50;;;2.53;;
4786;SDS011;62338;48.832;9.422;2023-04-28T04:27:53;8.70;;;2.90;;
4786;SDS011;62338;48.832;9.422;2023-04-28T04:29:55;9.33;;;2.87;;
4786;SDS011;62338;48.832;9.422;2023-04-28T04:31:56;5.00;;;2.63;;
4786;SDS011;62338;48.832;9.422;2023-04-28T04:33:58;6.20;;;2.60;;
4786;SDS011;62338;48.832;9.422;2023-04-28T04:36:00;4.23;;;2.40;;
4786;SDS011;62338;48.832;9.422;2023-04-28T04:38:01;5.53;;;2.87;;
4786;SDS011;62338;48.832;9.422;2023-04-28T04:40:03;5.27;;;2.70;;
4786;SDS011;62338;48.832;9.422;2023-04-28T04:42:06;3.83;;;2.60;;
4786;SDS011;62338;48.832;9.422;2023-04-28T04:44:23;4.40;;;2.50;;
4786;SDS011;62338;48.832;9.422;2023-04-28T04:46:25;4.50;;;2.70;;
4786;SDS011;62338;48.832;9.422;2023-04-28T04:48:27;5.40;;;2.57;;
4786;SDS011;62338;48.832;9.422;2023-04-28T04:50:29;4.50;;;2.47;;
4786;SDS011;62338;48.832;9.422;2023-04-28T04:52:31;4.23;;;2.47;;
4786;SDS011;62338;48.832;9.422;2023-04-28T04:54:33;4.43;;;2.97;;
4786;SDS011;62338;48.832;9.422;2023-04-28T04:56:35;7.07;;;3.00;;
4786;SDS011;62338;48.832;9.422;2023-04-28T04:58:37;4.03;;;2.60;;
4786;SDS011;62338;48.832;9.422;2023-04-28T05:00:39;6.40;;;2.70;;
4786;SDS011;62338;48.832;9.422;2023-04-28T05:02:41;7.57;;;2.70;;
4786;SDS011;62338;48.832;9.422;2023-04-28T05:04:43;5.50;;;2.77;;
4786;SDS011;62338;48.832;9.422;2023-04-28T05:06:44;6.13;;;3.17;;
4786;SDS011;62338;48.832;9.422;2023-04-28T05:08:46;6.33;;;3.30;;
4786;SDS011;62338;48.832;9.422;2023-04-28T05:10:48;6.90;;;3.23;;
4786;SDS011;62338;48.832;9.422;2023-04-28T05:12:50;4.93;;;3.00;;
4786;SDS011;62338;48.832;9.422;2023-04-28T05:14:52;4.70;;;3.13;;
4786;SDS011;62338;48.832;9.422;2023-04-28T05:16:53;7.10;;;3.57;;
4786;SDS011;62338;48.832;9.422;2023-04-28T05:18:55;6.67;;;4.00;;
4786;SDS011;62338;48.832;9.422;2023-04-28T05:20:57;4.70;;;2.90;;
4786;SDS011;62338;48.832;9.422;2023-04-28T05:22:58;7.30;;;3.27;;
4786;SDS011;62338;48.832;9.422;2023-04-28T05:25:00;5.07;;;3.30;;
4786;SDS011;62338;48.832;9.422;2023-04-28T05:27:02;8.60;;;3.30;;
4786;SDS011;62338;48.832;9.422;2023-04-28T05:29:04;6.90;;;2.90;;
4786;SDS011;62338;48.832;9.422;2023-04-28T05:31:06;4.50;;;3.13;;
4786;SDS011;62338;48.832;9.422;2023-04-28T05:33:08;5.50;;;3.37;;
4786;SDS011;62338;48.832;9.422;2023-04-28T05:35:09;7.53;;;3.63;;
4786;SDS011;62338;48.832;9.422;2023-04-28T05:37:11;5.60;;;3.10;;
4786;SDS011;62338;48.832;9.422;2023-04-28T05:39:13;5.63;;;3.57;;
4786;SDS011;62338;48.832;9.422;2023-04-28T05:41:15;5.07;;;3.30;;
4786;SDS011;62338;48.832;9.422;2023-04-28T05:43:16;5.00;;;3.50;;
4786;SDS011;62338;48.832;9.422;2023-04-28T05:45:18;6.13;;;3.83;;
4786;SDS011;62338;48.832;9.422;2023-04-28T05:47:20;6.67;;;3.27;;
4786;SDS011;62338;48.832;9.422;2023-04-28T05:49:22;6.47;;;3.73;;
4786;SDS011;62338;48.832;9.422;2023-04-28T05:51:24;6.10;;;3.43;;
4786;SDS011;62338;48.832;9.422;2023-04-28T05:53:27;6.53;;;3.90;;
4786;SDS011;62338;48.832;9.422;2023-04-28T05:55:28;5.50;;;3.40;;
4786;SDS011;62338;48.832;9.422;2023-04-28T05:57:31;8.73;;;4.23;;
4786;SDS011;62338;48.832;9.422;2023-04-28T05:59:49;6.70;;;3.27;;
4786;SDS011;62338;48.832;9.422;2023-04-28T06:01:51;9.53;;;4.33;;
4786;SDS011;62338;48.832;9.422;2023-04-28T06:03:53;5.03;;;3.90;;
4786;SDS011;62338;48.832;9.422;2023-04-28T06:05:56;7.07;;;4.30;;
4786;SDS011;62338;48.832;9.422;2023-04-28T06:07:58;8.23;;;3.97;;
4786;SDS011;62338;48.832;9.422;2023-04-28T06:10:00;5.90;;;4.20;;
4786;SDS011;62338;48.832;9.422;2023-04-28T06:12:02;7.57;;;4.83;;
4786;SDS011;62338;48.832;9.422;2023-04-28T06:14:04;6.50;;;5.10;;
4786;SDS011;62338;48.832;9.422;2023-04-28T06:16:06;7.70;;;4.70;;
4786;SDS011;62338;48.832;9.422;2023-04-28T06:18:08;6.20;;;4.40;;
4786;SDS011;62338;48.832;9.422;2023-04-28T06:20:10;8.20;;;5.07;;
4786;SDS011;62338;48.832;9.422;2023-04-28T06:22:14;9.33;;;5.50;;
4786;SDS011;62338;48.832;9.422;2023-04-28T06:24:15;7.40;;;5.00;;
4786;SDS011;62338;48.832;9.422;2023-04-28T06:26:18;12.80;;;5.30;;
4786;SDS011;62338;48.832;9.422;2023-04-28T06:28:20;8.83;;;5.37;;
4786;SDS011;62338;48.832;9.422;2023-04-28T06:30:21;10.27;;;5.87;;
4786;SDS011;62338;48.832;9.422;2023-04-28T06:32:23;12.30;;;6.60;;
4786;SDS011;62338;48.832;9.422;2023-04-28T06:34:25;14.13;;;5.73;;
4786;SDS011;62338;48.832;9.422;2023-04-28T06:36:28;10.97;;;6.77;;
4786;SDS011;62338;48.832;9.422;2023-04-28T06:38:30;9.27;;;6.00;;
4786;SDS011;62338;48.832;9.422;2023-04-28T06:40:32;8.73;;;6.13;;
4786;SDS011;62338;48.832;9.422;2023-04-28T06:42:33;12.63;;;6.37;;
4786;SDS011;62338;48.832;9.422;2023-04-28T06:44:35;10.50;;;5.87;;
4786;SDS011;62338;48.832;9.422;2023-04-28T06:46:37;12.33;;;6.90;;
4786;SDS011;62338;48.832;9.422;2023-04-28T06:48:39;9.17;;;5.80;;
4786;SDS011;62338;48.832;9.422;2023-04-28T06:50:41;8.50;;;6.60;;
4786;SDS011;62338;48.832;9.422;2023-04-28T06:52:44;9.83;;;6.30;;
4786;SDS011;62338;48.832;9.422;2023-04-28T06:54:45;14.57;;;6.40;;
4786;SDS011;62338;48.832;9.422;2023-04-28T06:56:47;8.30;;;5.33;;
4786;SDS011;62338;48.832;9.422;2023-04-28T06:58:49;8.67;;;6.33;;
4786;SDS011;62338;48.832;9.422;2023-04-28T07:00:51;15.20;;;6.60;;
4786;SDS011;62338;48.832;9.422;2023-04-28T07:02:53;88.53;;;10.40;;
4786;SDS011;62338;48.832;9.422;2023-04-28T07:04:55;10.63;;;6.70;;
4786;SDS011;62338;48.832;9.422;2023-04-28T07:06:57;12.37;;;6.50;;
4786;SDS011;62338;48.832;9.422;2023-04-28T07:08:59;14.17;;;7.20;;
4786;SDS011;62338;48.832;9.422;2023-04-28T07:11:01;8.83;;;6.00;;
4786;SDS011;62338;48.832;9.422;2023-04-28T07:13:06;10.70;;;6.27;;
4786;SDS011;62338;48.832;9.422;2023-04-28T07:15:08;8.70;;;6.10;;
4786;SDS011;62338;48.832;9.422;2023-04-28T07:17:10;6.80;;;5.00;;
4786;SDS011;62338;48.832;9.422;2023-04-28T07:19:12;8.23;;;5.70;;
4786;SDS011;62338;48.832;9.422;2023-04-28T07:21:14;9.80;;;6.07;;
4786;SDS011;62338;48.832;9.422;2023-04-28T07:23:16;7.37;;;5.60;;
4786;SDS011;62338;48.832;9.422;2023-04-28T07:25:17;8.20;;;6.13;;
4786;SDS011;62338;48.832;9.422;2023-04-28T07:27:20;9.60;;;5.13;;
4786;SDS011;62338;48.832;9.422;2023-04-28T07:29:22;9.77;;;7.60;;
4786;SDS011;62338;48.832;9.422;2023-04-28T07:31:24;8.23;;;6.20;;
4786;SDS011;62338;48.832;9.422;2023-04-28T07:33:26;7.47;;;4.90;;
4786;SDS011;62338;48.832;9.422;2023-04-28T07:35:28;9.50;;;7.17;;
4786;SDS011;62338;48.832;9.422;2023-04-28T07:37:30;10.00;;;6.40;;
4786;SDS011;62338;48.832;9.422;2023-04-28T07:39:33;9.90;;;6.73;;
4786;SDS011;62338;48.832;9.422;2023-04-28T07:41:36;10.80;;;7.23;;
4786;SDS011;62338;48.832;9.422;2023-04-28T07:43:39;9.40;;;6.47;;
4786;SDS011;62338;48.832;9.422;2023-04-28T07:45:41;12.07;;;7.10;;
4786;SDS011;62338;48.832;9.422;2023-04-28T07:47:46;9.90;;;6.73;;
4786;SDS011;62338;48.832;9.422;2023-04-28T07:49:47;55.70;;;8.47;;
4786;SDS011;62338;48.832;9.422;2023-04-28T07:51:49;174.83;;;13.70;;
4786;SDS011;62338;48.832;9.422;2023-04-28T07:53:53;9.50;;;6.80;;
4786;SDS011;62338;48.832;9.422;2023-04-28T07:55:55;11.43;;;6.97;;
4786;SDS011;62338;48.832;9.422;2023-04-28T07:57:57;8.63;;;6.47;;
4786;SDS011;62338;48.832;9.422;2023-04-28T07:59:59;8.77;;;5.47;;
4786;SDS011;62338;48.832;9.422;2023-04-28T08:02:01;10.60;;;6.20;;
4786;SDS011;62338;48.832;9.422;2023-04-28T08:04:03;11.57;;;6.90;;
4786;SDS011;62338;48.832;9.422;2023-04-28T08:06:06;9.53;;;5.30;;
4786;SDS011;62338;48.832;9.422;2023-04-28T08:08:08;9.17;;;6.13;;
4786;SDS011;62338;48.832;9.422;2023-04-28T08:10:10;10.17;;;5.47;;
4786;SDS011;62338;48.832;9.422;2023-04-28T08:12:13;9.67;;;6.17;;
4786;SDS011;62338;48.832;9.422;2023-04-28T08:14:15;14.70;;;6.70;;
4786;SDS011;62338;48.832;9.422;2023-04-28T08:16:18;7.73;;;6.37;;
4786;SDS011;62338;48.832;9.422;2023-04-28T08:18:20;10.90;;;6.60;;
4786;SDS011;62338;48.832;9.422;2023-04-28T08:20:22;13.13;;;6.57;;
4786;SDS011;62338;48.832;9.422;2023-04-28T08:22:25;19.40;;;7.30;;
4786;SDS011;62338;48.832;9.422;2023-04-28T08:24:26;15.10;;;7.37;;
4786;SDS011;62338;48.832;9.422;2023-04-28T08:26:30;12.10;;;7.73;;
4786;SDS011;62338;48.832;9.422;2023-04-28T08:28:32;26.30;;;8.20;;
4786;SDS011;62338;48.832;9.422;2023-04-28T08:30:34;31.53;;;7.47;;
4786;SDS011;62338;48.832;9.422;2023-04-28T08:32:38;9.77;;;7.00;;
4786;SDS011;62338;48.832;9.422;2023-04-28T08:34:40;12.90;;;7.80;;
4786;SDS011;62338;48.832;9.422;2023-04-28T08:36:42;13.37;;;6.63;;
4786;SDS011;62338;48.832;9.422;2023-04-28T08:38:44;13.43;;;7.00;;
4786;SDS011;62338;48.832;9.422;2023-04-28T08:40:46;11.13;;;6.70;;
4786;SDS011;62338;48.832;9.422;2023-04-28T08:42:48;11.63;;;6.40;;
4786;SDS011;62338;48.832;9.422;2023-04-28T08:44:50;10.67;;;6.80;;
4786;SDS011;62338;48.832;9.422;2023-04-28T08:46:59;12.27;;;7.30;;
4786;SDS011;62338;48.832;9.422;2023-04-28T08:49:04;11.10;;;6.43;;
4786;SDS011;62338;48.832;9.422;2023-04-28T08:51:09;104.07;;;11.80;;
4786;SDS011;62338;48.832;9.422;2023-04-28T08:53:23;374.10;;;27.30;;
4786;SDS011;62338;48.832;9.422;2023-04-28T08:55:26;707.63;;;45.90;;
4786;SDS011;62338;48.832;9.422;2023-04-28T08:57:29;56.33;;;10.03;;
4786;SDS011;62338;48.832;9.422;2023-04-28T08:59:43;36.13;;;7.73;;
4786;SDS011;62338;48.832;9.422;2023-04-28T09:01:47;389.37;;;26.03;;
4786;SDS011;62338;48.832;9.422;2023-04-28T09:03:49;31.37;;;7.00;;
4786;SDS011;62338;48.832;9.422;2023-04-28T09:05:54;14.60;;;6.50;;
4786;SDS011;62338;48.832;9.422;2023-04-28T09:07:56;7.33;;;5.43;;
4786;SDS011;62338;48.832;9.422;2023-04-28T09:12:18;10.03;;;5.37;;
4786;SDS011;62338;48.832;9.422;2023-04-28T09:14:21;113.13;;;8.33;;
4786;SDS011;62338;48.832;9.422;2023-04-28T09:16:23;114.93;;;10.47;;
4786;SDS011;62338;48.832;9.422;2023-04-28T09:18:54;15.60;;;6.30;;
4786;SDS011;62338;48.832;9.422;2023-04-28T09:23:13;19.30;;;6.50;;
4786;SDS011;62338;48.832;9.422;2023-04-28T09:25:19;18.33;;;6.30;;
4786;SDS011;62338;48.832;9.422;2023-04-28T09:27:26;230.77;;;13.83;;
4786;SDS011;62338;48.832;9.422;2023-04-28T09:29:32;77.33;;;10.93;;
4786;SDS011;62338;48.832;9.422;2023-04-28T09:31:34;242.23;;;16.33;;
4786;SDS011;62338;48.832;9.422;2023-04-28T09:33:55;217.17;;;13.60;;
4786;SDS011;62338;48.832;9.422;2023-04-28T09:36:00;25.60;;;6.73;;
4786;SDS011;62338;48.832;9.422;2023-04-28T09:38:02;20.93;;;7.47;;
4786;SDS011;62338;48.832;9.422;2023-04-28T09:40:04;276.73;;;18.30;;
4786;SDS011;62338;48.832;9.422;2023-04-28T09:42:08;183.07;;;14.10;;
4786;SDS011;62338;48.832;9.422;2023-04-28T09:44:17;166.20;;;14.83;;
4786;SDS011;62338;48.832;9.422;2023-04-28T09:46:27;470.90;;;25.00;;
4786;SDS011;62338;48.832;9.422;2023-04-28T09:48:36;359.13;;;22.40;;
4786;SDS011;62338;48.832;9.422;2023-04-28T09:50:39;83.70;;;9.40;;
4786;SDS011;62338;48.832;9.422;2023-04-28T09:52:42;72.23;;;8.50;;
4786;SDS011;62338;48.832;9.422;2023-04-28T09:54:46;381.13;;;24.13;;
4786;SDS011;62338;48.832;9.422;2023-04-28T09:56:52;116.23;;;11.00;;
4786;SDS011;62338;48.832;9.422;2023-04-28T09:58:56;480.23;;;28.80;;
4786;SDS011;62338;48.832;9.422;2023-04-28T10:01:01;697.33;;;41.00;;
4786;SDS011;62338;48.832;9.422;2023-04-28T10:03:03;862.73;;;50.07;;
4786;SDS011;62338;48.832;9.422;2023-04-28T10:05:06;861.83;;;51.67;;
4786;SDS011;62338;48.832;9.422;2023-04-28T10:07:11;913.47;;;46.43;;
4786;SDS011;62338;48.832;9.422;2023-04-28T10:09:14;476.57;;;28.73;;
4786;SDS011;62338;48.832;9.422;2023-04-28T10:11:17;645.57;;;33.63;;
4786;SDS011;62338;48.832;9.422;2023-04-28T10:13:21;640.07;;;33.90;;
4786;SDS011;62338;48.832;9.422;2023-04-28T10:15:23;256.67;;;17.37;;
4786;SDS011;62338;48.832;9.422;2023-04-28T10:17:25;506.73;;;29.60;;
4786;SDS011;62338;48.832;9.422;2023-04-28T10:19:27;249.20;;;14.07;;
4786;SDS011;62338;48.832;9.422;2023-04-28T10:21:29;167.50;;;14.87;;
4786;SDS011;62338;48.832;9.422;2023-04-28T10:26:08;21.50;;;8.60;;
4786;SDS011;62338;48.832;9.422;2023-04-28T10:28:12;73.97;;;13.57;;
4786;SDS011;62338;48.832;9.422;2023-04-28T10:30:17;262.43;;;21.13;;
4786;SDS011;62338;48.832;9.422;2023-04-28T10:32:29;19.77;;;9.77;;
4786;SDS011;62338;48.832;9.422;2023-04-28T10:34:32;47.10;;;10.23;;
4786;SDS011;62338;48.832;9.422;2023-04-28T10:36:47;15.90;;;8.93;;
4786;SDS011;62338;48.832;9.422;2023-04-28T10:39:06;9.53;;;6.90;;
4786;SDS011;62338;48.832;9.422;2023-04-28T10:41:30;13.07;;;10.63;;
4786;SDS011;62338;48.832;9.422;2023-04-28T10:43:33;15.50;;;8.37;;
4786;SDS011;62338;48.832;9.422;2023-04-28T10:48:01;14.57;;;9.47;;
4786;SDS011;62338;48.832;9.422;2023-04-28T10:50:07;8.30;;;6.67;;
4786;SDS011;62338;48.832;9.422;2023-04-28T10:52:46;10.20;;;7.03;;
4786;SDS011;62338;48.832;9.422;2023-04-28T10:57:25;5.53;;;3.50;;
4786;SDS011;62338;48.832;9.422;2023-04-28T10:59:27;5.23;;;3.53;;
4786;SDS011;62338;48.832;9.422;2023-04-28T11:01:30;6.67;;;3.60;;
4786;SDS011;62338;48.832;9.422;2023-04-28T11:03:46;6.27;;;4.40;;
4786;SDS011;62338;48.832;9.422;2023-04-28T11:08:32;5.80;;;4.27;;
4786;SDS011;62338;48.832;9.422;2023-04-28T11:13:28;6.00;;;3.73;;
4786;SDS011;62338;48.832;9.422;2023-04-28T11:15:34;5.30;;;4.03;;
4786;SDS011;62338;48.832;9.422;2023-04-28T11:17:39;6.00;;;3.80;;
4786;SDS011;62338;48.832;9.422;2023-04-28T11:19:43;5.97;;;3.87;;
4786;SDS011;62338;48.832;9.422;2023-04-28T11:21:46;4.70;;;3.93;;
4786;SDS011;62338;48.832;9.422;2023-04-28T11:23:48;7.33;;;3.90;;
4786;SDS011;62338;48.832;9.422;2023-04-28T11:25:53;5.47;;;3.87;;
4786;SDS011;62338;48.832;9.422;2023-04-28T11:28:04;7.47;;;4.70;;
4786;SDS011;62338;48.832;9.422;2023-04-28T11:30:21;6.30;;;4.30;;
4786;SDS011;62338;48.832;9.422;2023-04-28T11:32:27;8.53;;;3.87;;
4786;SDS011;62338;48.832;9.422;2023-04-28T11:34:33;6.77;;;4.23;;
4786;SDS011;62338;48.832;9.422;2023-04-28T11:36:37;5.17;;;3.90;;
4786;SDS011;62338;48.832;9.422;2023-04-28T11:38:43;6.20;;;3.70;;
4786;SDS011;62338;48.832;9.422;2023-04-28T11:40:57;6.37;;;4.00;;
4786;SDS011;62338;48.832;9.422;2023-04-28T11:42:59;6.80;;;4.33;;
4786;SDS011;62338;48.832;9.422;2023-04-28T11:45:02;9.13;;;4.10;;
4786;SDS011;62338;48.832;9.422;2023-04-28T11:47:05;7.87;;;4.90;;
4786;SDS011;62338;48.832;9.422;2023-04-28T11:49:07;5.23;;;3.80;;
4786;SDS011;62338;48.832;9.422;2023-04-28T11:51:09;9.70;;;4.20;;
4786;SDS011;62338;48.832;9.422;2023-04-28T11:53:11;5.57;;;4.00;;
4786;SDS011;62338;48.832;9.422;2023-04-28T11:55:15;8.50;;;4.30;;
4786;SDS011;62338;48.832;9.422;2023-04-28T11:57:18;6.30;;;4.03;;
4786;SDS011;62338;48.832;9.422;2023-04-28T11:59:25;7.10;;;4.70;;
4786;SDS011;62338;48.832;9.422;2023-04-28T12:01:31;8.73;;;5.07;;
4786;SDS011;62338;48.832;9.422;2023-04-28T12:03:46;6.17;;;4.30;;
4786;SDS011;62338;48.832;9.422;2023-04-28T12:05:49;6.97;;;5.47;;
4786;SDS011;62338;48.832;9.422;2023-04-28T12:07:50;6.30;;;4.77;;
4786;SDS011;62338;48.832;9.422;2023-04-28T12:12:15;8.80;;;5.43;;
4786;SDS011;62338;48.832;9.422;2023-04-28T12:15:07;6.63;;;3.97;;
4786;SDS011;62338;48.832;9.422;2023-04-28T12:17:21;7.83;;;4.73;;
4786;SDS011;62338;48.832;9.422;2023-04-28T12:19:24;9.77;;;5.17;;
4786;SDS011;62338;48.832;9.422;2023-04-28T12:21:26;5.97;;;4.20;;
4786;SDS011;62338;48.832;9.422;2023-04-28T12:23:34;12.00;;;4.30;;
4786;SDS011;62338;48.832;9.422;2023-04-28T12:25:43;8.33;;;2.90;;
4786;SDS011;62338;48.832;9.422;2023-04-28T12:28:02;8.53;;;2.77;;
4786;SDS011;62338;48.832;9.422;2023-04-28T12:34:40;5.23;;;2.40;;
4786;SDS011;62338;48.832;9.422;2023-04-28T12:36:43;4.10;;;2.90;;
4786;SDS011;62338;48.832;9.422;2023-04-28T12:38:47;7.40;;;3.20;;
4786;SDS011;62338;48.832;9.422;2023-04-28T12:40:49;26.60;;;7.70;;
4786;SDS011;62338;48.832;9.422;2023-04-28T12:42:51;30.93;;;8.70;;
4786;SDS011;62338;48.832;9.422;2023-04-28T12:44:53;15.00;;;3.63;;
4786;SDS011;62338;48.832;9.422;2023-04-28T12:46:55;13.00;;;2.13;;
4786;SDS011;62338;48.832;9.422;2023-04-28T12:48:57;2.70;;;1.50;;
4786;SDS011;62338;48.832;9.422;2023-04-28T12:50:58;3.37;;;1.77;;
4786;SDS011;62338;48.832;9.422;2023-04-28T12:53:01;3.50;;;1.50;;
4786;SDS011;62338;48.832;9.422;2023-04-28T12:55:03;3.13;;;1.67;;